Time;durP1;ratioP1;P1;durP2;ratioP2;P2;SDS_P1;SDS_P2;PMS_P1;PMS_P2;Temp;Humidity;BMP_temperature;BMP_pressure;BME280_temperature;BME280_humidity;BME280_pressure;Samples;Min_cycle;Max_cycle;Signal;HPM_P1;HPM_P2
2023/10/31 00:02:06;;;;;;;7.07;6.37;;;;;;;8.24;100.00;94085.19;7395440;19;20379;-91
2023/10/31 00:04:34;;;;;;;5.93;5.40;;;;;;;7.21;100.00;93926.66;7399452;19;20398;-91
2023/10/31 00:07:02;;;;;;;7.03;6.40;;;;;;;7.59;100.00;93980.63;7396096;19;20448;-91
2023/10/31 00:09:30;;;;;;;9.07;7.63;;;;;;;7.78;100.00;94023.59;7395446;19;20497;-91
2023/10/31 00:12:35;;;;;;;7.87;6.27;;;;;;;7.00;100.00;93905.47;7396792;19;20418;-91
2023/10/31 00:15:40;;;;;;;6.37;5.87;;;;;;;9.17;100.00;94214.84;7393569;19;20479;-91
2023/10/31 00:18:07;;;;;;;7.17;5.87;;;;;;;7.28;100.00;93928.56;7398257;19;21412;-91
2023/10/31 00:20:34;;;;;;;6.30;5.80;;;;;;;8.25;100.00;94075.41;7397520;19;20406;-91
2023/10/31 00:23:02;;;;;;;8.27;5.43;;;;;;;7.70;100.00;94017.53;7402246;19;20480;-91
2023/10/31 00:25:38;;;;;;;7.07;5.30;;;;;;;7.43;100.00;93961.72;7404329;19;20386;-91
2023/10/31 00:28:56;;;;;;;7.37;6.67;;;;;;;7.18;100.00;93926.63;7403800;19;20411;-91
2023/10/31 00:31:50;;;;;;;6.47;4.77;;;;;;;6.69;100.00;93854.94;7402796;19;20387;-90
2023/10/31 00:34:27;;;;;;;5.63;5.13;;;;;;;7.68;100.00;94015.25;7401365;19;20378;-91
2023/10/31 00:36:57;;;;;;;5.47;4.97;;;;;;;7.46;100.00;93986.53;7405095;19;20380;-91
2023/10/31 00:40:49;;;;;;;5.73;5.30;;;;;;;7.31;100.00;93954.88;7402145;19;20435;-90
2023/10/31 00:44:01;;;;;;;5.50;5.00;;;;;;;7.63;100.00;93994.56;7403824;19;20417;-90
2023/10/31 00:46:48;;;;;;;5.80;5.30;;;;;;;7.30;100.00;93960.50;7402025;19;20917;-91
2023/10/31 00:49:19;;;;;;;4.80;4.40;;;;;;;7.06;100.00;93906.63;7399683;19;20404;-90
2023/10/31 00:51:55;;;;;;;5.27;4.87;;;;;;;7.89;100.00;94035.72;7403181;19;20430;-91
2023/10/31 00:55:14;;;;;;;5.07;4.67;;;;;;;6.81;100.00;93872.25;7402764;19;20470;-90
2023/10/31 00:57:42;;;;;;;5.07;4.57;;;;;;;7.02;100.00;93903.97;7405297;19;20431;-91
2023/10/31 01:00:12;;;;;;;6.87;4.80;;;;;;;8.08;100.00;94062.91;7403347;19;20511;-91
2023/10/31 01:02:39;;;;;;;5.20;4.50;;;;;;;6.68;100.00;93866.56;7408768;19;20393;-91
2023/10/31 01:05:07;;;;;;;5.47;4.73;;;;;;;7.26;100.00;93949.22;7403932;19;20392;-91
2023/10/31 01:07:34;;;;;;;5.07;4.60;;;;;;;6.98;100.00;93903.19;7405014;19;20387;-91
2023/10/31 01:10:02;;;;;;;5.07;4.60;;;;;;;8.92;100.00;94190.25;7401584;19;20454;-91
2023/10/31 01:12:30;;;;;;;4.83;4.03;;;;;;;9.12;100.00;94233.66;7400815;19;20406;-92
2023/10/31 01:14:58;;;;;;;4.73;4.33;;;;;;;8.17;100.00;94085.16;7402887;19;20415;-91
2023/10/31 01:17:38;;;;;;;4.77;4.37;;;;;;;7.51;100.00;94000.13;7403032;19;20385;-92
2023/10/31 01:20:10;;;;;;;4.30;3.90;;;;;;;7.38;100.00;93973.34;7396920;19;20477;-91
2023/10/31 01:22:37;;;;;;;8.07;3.90;;;;;;;7.78;100.00;94032.25;7401739;19;20384;-92
2023/10/31 01:25:04;;;;;;;4.57;4.20;;;;;;;7.06;100.00;93935.50;7399514;19;20782;-91
2023/10/31 01:27:31;;;;;;;6.20;3.83;;;;;;;7.55;100.00;93997.50;7401822;19;20386;-91
2023/10/31 01:29:59;;;;;;;4.10;3.80;;;;;;;6.98;100.00;93933.97;7398127;19;20445;-91
2023/10/31 01:32:32;;;;;;;3.73;3.43;;;;;;;7.11;100.00;93945.72;7400984;19;20399;-91
2023/10/31 01:39:05;;;;;;;2.73;2.53;;;;;;;7.09;100.00;93967.09;7407127;19;20339;-92
2023/10/31 01:41:32;;;;;;;2.90;2.10;;;;;;;8.04;100.00;94091.84;7402332;19;20387;-91
2023/10/31 01:44:00;;;;;;;2.60;2.40;;;;;;;7.49;100.00;94033.16;7408407;19;20396;-91
2023/10/31 01:46:27;;;;;;;2.83;2.63;;;;;;;8.85;100.00;94218.06;7406632;19;20392;-91
2023/10/31 01:48:54;;;;;;;2.17;2.00;;;;;;;7.97;100.00;94089.13;7414696;19;20423;-92
2023/10/31 01:51:22;;;;;;;2.63;1.83;;;;;;;7.19;100.00;93981.44;7417322;19;20392;-91
2023/10/31 01:54:18;;;;;;;2.13;1.93;;;;;;;8.58;100.00;94196.44;7405025;19;20515;-91
2023/10/31 02:17:22;;;;;;;1.90;1.40;;;;;;;8.96;100.00;94246.38;7400525;19;20406;-91
2023/10/31 02:19:50;;;;;;;1.30;1.10;;;;;;;7.42;100.00;94031.19;7398754;19;20437;-91
2023/10/31 02:22:17;;;;;;;1.43;1.33;;;;;;;8.74;100.00;94219.13;7398830;19;20470;-90
2023/10/31 02:24:44;;;;;;;1.47;1.30;;;;;;;7.30;100.00;94013.06;7397295;19;20411;-91
2023/10/31 02:27:11;;;;;;;1.13;1.03;;;;;;;7.72;100.00;94070.50;7401142;19;20407;-91
2023/10/31 02:29:39;;;;;;;1.13;1.03;;;;;;;8.22;100.00;94145.34;7399758;19;20437;-91
2023/10/31 02:32:06;;;;;;;1.13;1.03;;;;;;;7.10;100.00;93968.59;7400889;19;20375;-89
2023/10/31 02:34:34;;;;;;;1.13;1.03;;;;;;;8.18;100.00;94134.03;7397518;19;20358;-90
2023/10/31 02:37:01;;;;;;;1.83;1.10;;;;;;;8.92;100.00;94235.03;7396527;19;20403;-89
2023/10/31 02:39:28;;;;;;;1.37;0.80;;;;;;;8.27;100.00;94139.72;7394507;19;20437;-90
2023/10/31 02:41:55;;;;;;;0.93;0.80;;;;;;;8.05;100.00;94113.63;7394035;19;20390;-90
2023/10/31 02:44:22;;;;;;;4.00;1.23;;;;;;;8.42;100.00;94174.13;7394307;19;20934;-90
2023/10/31 02:46:49;;;;;;;0.87;0.80;;;;;;;8.21;100.00;94149.09;7396760;19;20449;-90
2023/10/31 02:49:16;;;;;;;0.87;0.87;;;;;;;7.62;100.00;94081.72;7395256;19;20422;-90
2023/10/31 02:51:44;;;;;;;2.87;0.90;;;;;;;8.64;100.00;94225.81;7393548;19;20962;-90
2023/10/31 02:54:11;;;;;;;0.80;0.70;;;;;;;7.88;100.00;94130.75;7394275;19;20393;-90
2023/10/31 02:56:39;;;;;;;0.80;0.70;;;;;;;7.00;100.00;94000.00;7394249;19;20393;-90
2023/10/31 02:59:06;;;;;;;1.00;0.90;;;;;;;7.34;100.00;94061.16;7394318;19;20406;-90
2023/10/31 03:01:34;;;;;;;0.97;0.97;;;;;;;7.97;100.00;94176.72;7397057;19;20463;-90
2023/10/31 03:04:02;;;;;;;1.00;0.90;;;;;;;8.24;100.00;94219.44;7395705;19;20933;-90
2023/10/31 03:06:29;;;;;;;0.90;0.70;;;;;;;7.75;100.00;94147.94;7397059;19;20414;-90
2023/10/31 03:08:58;;;;;;;1.43;0.80;;;;;;;7.88;100.00;94175.47;7395344;19;20414;-90
2023/10/31 03:11:26;;;;;;;2.43;1.00;;;;;;;7.63;100.00;94141.06;7396943;19;20784;-90
2023/10/31 03:13:56;;;;;;;1.20;1.10;;;;;;;6.83;100.00;94024.97;7393509;19;20382;-90
2023/10/31 03:16:24;;;;;;;1.93;0.90;;;;;;;7.31;100.00;94094.16;7396284;19;20995;-90
2023/10/31 03:18:59;;;;;;;3.57;1.10;;;;;;;6.88;100.00;94024.66;7394754;19;20390;-90
2023/10/31 03:21:27;;;;;;;1.17;1.07;;;;;;;8.75;100.00;94292.50;7394445;19;20408;-90
2023/10/31 03:23:58;;;;;;;1.00;0.83;;;;;;;6.58;100.00;93977.44;7394133;19;20404;-91
2023/10/31 03:26:25;;;;;;;1.10;0.80;;;;;;;7.37;100.00;94102.50;7392772;19;20380;-92
2023/10/31 03:28:56;;;;;;;0.77;0.77;;;;;;;8.45;100.00;94273.44;7396124;19;20497;-90
2023/10/31 03:31:24;;;;;;;1.40;1.30;;;;;;;8.37;100.00;94269.97;7396212;19;20404;-90
2023/10/31 03:33:53;;;;;;;0.80;0.80;;;;;;;6.61;100.00;94010.84;7394570;19;20399;-90
2023/10/31 03:36:20;;;;;;;1.23;0.80;;;;;;;7.62;100.00;94173.75;7393733;19;20475;-90
2023/10/31 03:38:47;;;;;;;0.70;0.70;;;;;;;8.15;100.00;94253.22;7394687;19;20408;-90
2023/10/31 03:41:14;;;;;;;1.00;0.80;;;;;;;7.75;100.00;94205.81;7391506;19;20434;-90
2023/10/31 03:43:41;;;;;;;0.70;0.60;;;;;;;7.68;100.00;94195.97;7394202;19;20405;-90
2023/10/31 03:46:09;;;;;;;3.83;1.10;;;;;;;7.61;100.00;94194.03;7394113;19;20431;-91
2023/10/31 03:48:36;;;;;;;1.57;1.00;;;;;;;7.53;100.00;94179.28;7392274;19;20761;-90
2023/10/31 03:51:03;;;;;;;0.93;0.83;;;;;;;7.38;100.00;94162.59;7392986;19;20378;-90
2023/10/31 03:53:30;;;;;;;0.80;0.70;;;;;;;6.74;100.00;94083.00;7396617;19;20383;-90
2023/10/31 03:56:20;;;;;;;1.57;0.80;;;;;;;6.85;100.00;94117.28;7400130;19;20439;-90
2023/10/31 03:59:32;;;;;;;1.67;1.03;;;;;;;6.80;100.00;94117.59;7400620;19;20385;-90
2023/10/31 04:02:15;;;;;;;1.07;0.90;;;;;;;6.99;100.00;94164.75;7402579;19;20414;-90
2023/10/31 04:04:54;;;;;;;1.63;0.70;;;;;;;6.48;100.00;94089.06;7404325;19;20444;-91
2023/10/31 04:10:37;;;;;;;1.00;0.90;;;;;;;7.26;100.00;94228.53;7411535;19;20466;-95
2023/10/31 04:13:18;;;;;;;0.80;0.80;;;;;;;6.91;100.00;94157.88;7417620;19;20402;-94
2023/10/31 04:16:23;;;;;;;1.83;0.80;;;;;;;6.77;100.00;94152.44;7419843;19;20422;-94
2023/10/31 04:19:03;;;;;;;0.70;0.70;;;;;;;6.89;100.00;94180.34;7421780;19;20396;-94
2023/10/31 04:22:03;;;;;;;0.70;0.60;;;;;;;6.75;100.00;94162.53;7418352;19;20387;-95
2023/10/31 04:25:17;;;;;;;0.87;0.83;;;;;;;8.20;100.00;94371.31;7417290;19;20421;-95
2023/10/31 04:27:44;;;;;;;2.07;0.90;;;;;;;6.92;100.00;94187.53;7404492;19;20405;-89
2023/10/31 04:30:11;;;;;;;1.97;1.10;;;;;;;6.13;100.00;94070.19;7396853;19;20989;-90
2023/10/31 04:51:39;;;;;;;2.63;1.23;;;;;;;7.81;100.00;94385.84;7410532;19;20442;-95
2023/10/31 04:54:22;;;;;;;1.27;0.80;;;;;;;5.69;100.00;94065.38;7411144;19;20414;-94
2023/10/31 04:57:22;;;;;;;0.80;0.77;;;;;;;7.93;100.00;94414.59;7411177;19;20539;-94
2023/10/31 05:00:28;;;;;;;1.10;0.77;;;;;;;7.19;100.00;94302.00;7415854;19;20401;-94
2023/10/31 05:03:09;;;;;;;1.80;0.97;;;;;;;7.83;100.00;94420.44;7410394;19;20398;-94
2023/10/31 05:06:10;;;;;;;1.47;0.80;;;;;;;7.79;100.00;94417.78;7412474;19;20419;-94
2023/10/31 05:12:04;;;;;;;1.10;0.90;;;;;;;7.70;100.00;94419.91;7413849;19;20402;-95
2023/10/31 05:14:40;;;;;;;2.97;1.30;;;;;;;5.25;100.00;94059.78;7410729;19;20395;-94
2023/10/31 05:17:14;;;;;;;1.20;0.90;;;;;;;7.17;100.00;94356.00;7408403;19;20468;-94
2023/10/31 05:20:03;;;;;;;1.53;0.80;;;;;;;5.38;100.00;94066.38;7409656;19;20387;-94
2023/10/31 05:22:41;;;;;;;2.10;1.20;;;;;;;6.52;100.00;94236.09;7409398;19;20420;-94
2023/10/31 05:25:15;;;;;;;1.27;0.80;;;;;;;7.54;100.00;94420.03;7409703;19;20408;-94
2023/10/31 05:27:46;;;;;;;3.43;1.20;;;;;;;5.85;100.00;94199.72;7408787;19;20383;-94
2023/10/31 05:30:17;;;;;;;1.23;1.07;;;;;;;7.60;100.00;94458.06;7408286;19;20481;-94
2023/10/31 05:32:54;;;;;;;1.10;1.00;;;;;;;7.58;100.00;94465.56;7409102;19;20410;-94
2023/10/31 05:35:43;;;;;;;2.03;0.93;;;;;;;7.57;100.00;94464.03;7415440;19;20433;-93
2023/10/31 05:38:24;;;;;;;0.80;0.73;;;;;;;7.58;100.00;94455.03;7409753;19;20406;-94
2023/10/31 05:41:32;;;;;;;1.20;0.90;;;;;;;6.14;100.00;94245.59;7407376;19;20364;-94
2023/10/31 05:44:20;;;;;;;3.73;1.10;;;;;;;7.56;100.00;94467.03;7406999;19;20425;-94
2023/10/31 05:47:10;;;;;;;3.53;1.03;;;;;;;7.55;100.00;94479.41;7407791;19;20423;-93
2023/10/31 05:49:51;;;;;;;1.43;1.33;;;;;;;6.11;100.00;94267.25;7408358;19;20387;-94
2023/10/31 05:53:24;;;;;;;0.80;0.80;;;;;;;7.51;100.00;94481.22;7407739;19;20380;-94
2023/10/31 05:56:20;;;;;;;1.07;0.80;;;;;;;6.52;100.00;94362.06;7408144;19;20958;-94
2023/10/31 05:59:05;;;;;;;1.57;1.00;;;;;;;7.47;100.00;94492.78;7407771;19;20398;-94
2023/10/31 06:01:35;;;;;;;1.30;0.80;;;;;;;6.86;100.00;94409.56;7405416;19;20437;-93
2023/10/31 06:04:22;;;;;;;1.43;0.90;;;;;;;5.08;100.00;94149.25;7405990;19;20387;-94
2023/10/31 06:07:03;;;;;;;1.07;0.97;;;;;;;6.04;100.00;94287.38;7403169;19;20436;-94
2023/10/31 06:09:41;;;;;;;0.90;0.90;;;;;;;6.38;100.00;94357.34;7404780;19;20438;-94
2023/10/31 06:12:13;;;;;;;1.80;0.80;;;;;;;5.97;100.00;94295.88;7405575;19;20385;-94
2023/10/31 06:14:48;;;;;;;0.80;0.70;;;;;;;7.42;100.00;94525.38;7406037;19;20402;-94
2023/10/31 06:17:26;;;;;;;1.60;1.50;;;;;;;7.44;100.00;94528.44;7400813;19;20427;-94
2023/10/31 06:19:56;;;;;;;2.10;1.00;;;;;;;7.46;100.00;94528.81;7404585;19;20423;-94
2023/10/31 06:22:35;;;;;;;0.90;0.80;;;;;;;7.44;100.00;94517.16;7408108;19;20407;-94
2023/10/31 06:26:08;;;;;;;1.00;1.00;;;;;;;7.45;100.00;94526.56;7409868;19;20431;-94
2023/10/31 06:29:30;;;;;;;;;;;;;;;;;;;;;
2023/10/31 06:32:55;;;;;;;;;;;;;;;;;;;;;
2023/10/31 06:40:27;;;;;;;1.13;1.03;;;;;;;7.46;100.00;94549.84;7403943;19;20409;-94
2023/10/31 06:44:03;;;;;;;3.20;3.00;;;;;;;7.46;100.00;94557.75;7404135;19;20398;-94
2023/10/31 07:49:29;;;;;;;1.00;0.90;;;;;;;5.61;100.00;94438.56;7427318;19;20416;-91
2023/10/31 09:45:25;;;;;;;1.80;1.70;;;;;;;6.48;100.00;94506.38;7402890;19;20415;-94
2023/10/31 09:48:26;;;;;;;1.00;0.90;;;;;;;6.48;100.00;94514.25;7403615;19;20770;-94
2023/10/31 09:51:31;;;;;;;1.60;1.40;;;;;;;5.72;100.00;94394.97;7409089;19;20396;-93
2023/10/31 09:54:17;;;;;;;1.20;1.07;;;;;;;6.48;100.00;94530.00;7401975;19;20398;-94
2023/10/31 09:57:21;;;;;;;1.43;1.20;;;;;;;7.96;100.00;94740.13;7401246;19;20444;-94
2023/10/31 09:59:57;;;;;;;2.60;1.57;;;;;;;6.64;100.00;94535.19;7400521;19;20392;-94
2023/10/31 10:02:38;;;;;;;3.73;3.40;;;;;;;8.00;100.00;94756.75;7400430;19;20407;-94
2023/10/31 10:16:41;;;;;;;1.90;1.70;;;;;;;7.72;100.00;94765.63;7403671;19;20408;-93
2023/10/31 10:19:20;;;;;;;3.27;3.07;;;;;;;5.59;100.00;94432.88;7405371;19;20398;-94
2023/10/31 10:22:00;;;;;;;1.23;1.13;;;;;;;6.65;100.00;94614.72;7400406;19;20406;-94
2023/10/31 10:24:55;;;;;;;2.30;2.10;;;;;;;7.46;100.00;94754.19;7404615;19;20402;-94
2023/10/31 10:27:30;;;;;;;3.83;2.60;;;;;;;5.79;100.00;94531.47;7412194;19;20421;-95
2023/10/31 10:30:13;;;;;;;3.87;2.80;;;;;;;6.17;100.00;94579.94;7429081;19;20422;-92
2023/10/31 10:32:42;;;;;;;11.60;5.73;;;;;;;5.21;100.00;94426.41;7428124;19;20398;-96
2023/10/31 10:35:20;;;;;;;8.77;5.20;;;;;;;6.30;100.00;94594.50;7428456;19;20397;-94
2023/10/31 10:37:58;;;;;;;4.37;2.70;;;;;;;5.38;100.00;94469.84;7425294;19;20395;-94
2023/10/31 10:40:53;;;;;;;3.43;2.70;;;;;;;5.99;100.00;94555.16;7416784;19;20445;-94
2023/10/31 10:43:37;;;;;;;3.80;3.50;;;;;;;7.46;100.00;94757.56;7431212;19;20392;-95
2023/10/31 10:46:17;;;;;;;3.67;1.80;;;;;;;6.47;100.00;94624.84;7422904;19;20952;-95
2023/10/31 10:49:07;;;;;;;1.37;1.27;;;;;;;7.53;100.00;94768.25;7416120;19;20413;-96
2023/10/31 10:52:05;;;;;;;1.50;1.20;;;;;;;5.37;100.00;94438.75;7411209;19;20411;-94
2023/10/31 10:55:25;;;;;;;7.93;2.37;;;;;;;7.58;100.00;94767.19;7415102;19;21797;-95
2023/10/31 11:18:02;;;;;;;1.50;1.40;;;;;;;6.56;100.00;94583.44;7370278;19;20438;-93
2023/10/31 11:20:55;;;;;;;4.97;2.40;;;;;;;6.43;100.00;94569.66;7425139;19;20417;-94
2023/10/31 11:23:44;;;;;;;2.20;1.30;;;;;;;6.62;100.00;94591.78;7425783;19;20461;-95
2023/10/31 11:26:19;;;;;;;2.97;1.00;;;;;;;7.82;100.00;94777.47;7421189;19;21123;-95
2023/10/31 11:28:52;;;;;;;0.80;0.80;;;;;;;6.69;100.00;94616.34;7424536;19;20405;-94
2023/10/31 11:31:45;;;;;;;1.70;1.20;;;;;;;5.18;100.00;94398.25;7424558;19;20416;-94
2023/10/31 11:34:41;;;;;;;1.50;1.20;;;;;;;6.00;100.00;94536.47;7418648;19;20369;-94
2023/10/31 11:37:36;;;;;;;1.50;1.10;;;;;;;7.66;100.00;94785.41;7417859;19;20424;-92
2023/10/31 11:40:23;;;;;;;4.13;1.10;;;;;;;6.49;100.00;94623.41;7423899;19;20375;-93
2023/10/31 11:45:59;;;;;;;1.40;1.03;;;;;;;6.43;100.00;94606.41;7415540;19;20463;-93
2023/10/31 11:48:50;;;;;;;1.70;1.00;;;;;;;5.58;100.00;94495.03;7422776;19;20385;-93
2023/10/31 11:51:35;;;;;;;2.17;0.90;;;;;;;6.33;100.00;94593.03;7419058;19;20447;-94
2023/10/31 11:54:29;;;;;;;5.03;1.60;;;;;;;6.33;100.00;94587.78;7426307;19;20380;-92
2023/10/31 11:57:39;;;;;;;1.17;1.10;;;;;;;6.33;100.00;94593.81;7424325;19;20506;-94
2023/10/31 12:00:24;;;;;;;2.17;0.97;;;;;;;6.36;100.00;94615.97;7422572;19;20366;-93
2023/10/31 12:03:04;;;;;;;1.00;0.90;;;;;;;6.19;100.00;94594.25;7412125;19;20397;-93
2023/10/31 12:05:56;;;;;;;1.00;0.90;;;;;;;6.52;100.00;94648.97;7410541;19;20415;-92
2023/10/31 12:08:40;;;;;;;1.40;0.97;;;;;;;5.18;100.00;94448.03;7415371;19;20391;-93
2023/10/31 12:14:05;;;;;;;1.60;1.50;;;;;;;6.91;100.00;94738.38;7428379;19;20385;-95
2023/10/31 12:16:46;;;;;;;1.47;1.27;;;;;;;6.45;100.00;94661.94;7423024;19;20429;-93
2023/10/31 12:19:21;;;;;;;1.70;1.33;;;;;;;6.41;100.00;94650.63;7425539;19;20389;-94
2023/10/31 12:22:02;;;;;;;1.63;1.40;;;;;;;7.58;100.00;94838.19;7417559;19;20395;-93
2023/10/31 12:24:34;;;;;;;4.60;1.20;;;;;;;6.24;100.00;94637.81;7421187;19;20383;-94
2023/10/31 12:27:05;;;;;;;2.60;1.20;;;;;;;7.63;100.00;94822.19;7424404;19;20421;-94
2023/10/31 12:29:44;;;;;;;1.93;1.43;;;;;;;6.11;100.00;94604.91;7424134;19;20421;-94
2023/10/31 12:32:13;;;;;;;2.70;1.20;;;;;;;6.69;100.00;94666.25;7429068;19;20408;-94
2023/10/31 12:34:49;;;;;;;1.67;1.57;;;;;;;5.42;100.00;94488.25;7432248;19;20390;-95
2023/10/31 12:37:24;;;;;;;1.97;1.77;;;;;;;7.69;100.00;94812.91;7432848;19;20437;-94
2023/10/31 12:40:04;;;;;;;3.00;2.20;;;;;;;5.30;100.00;94429.59;7428086;19;20422;-93
2023/10/31 12:42:48;;;;;;;2.67;1.60;;;;;;;6.73;100.00;94642.69;7430575;19;20380;-93
2023/10/31 12:45:37;;;;;;;2.07;1.53;;;;;;;7.70;100.00;94783.63;7431986;19;20419;-92
2023/10/31 12:48:11;;;;;;;2.77;1.70;;;;;;;6.78;100.00;94639.78;7432458;19;20383;-94
2023/10/31 12:50:42;;;;;;;1.13;1.03;;;;;;;6.78;100.00;94650.28;7426744;19;20388;-93
2023/10/31 12:53:23;;;;;;;2.23;2.07;;;;;;;7.69;100.00;94797.88;7424364;19;20376;-94
2023/10/31 12:55:53;;;;;;;1.57;1.30;;;;;;;7.67;100.00;94784.31;7417413;19;20419;-93
2023/10/31 12:58:43;;;;;;;3.33;3.03;;;;;;;7.72;100.00;94789.28;7428576;19;20391;-95
2023/10/31 13:01:58;;;;;;;2.77;1.40;;;;;;;6.04;100.00;94552.28;7424487;19;20382;-94
2023/10/31 13:04:34;;;;;;;3.70;3.20;;;;;;;7.76;100.00;94815.69;7410645;19;20957;-93
2023/10/31 13:07:07;;;;;;;2.03;1.40;;;;;;;5.48;100.00;94471.19;7409406;19;20962;-92
2023/10/31 13:09:40;;;;;;;1.50;1.40;;;;;;;7.31;100.00;94758.38;7404318;19;20408;-92
2023/10/31 13:12:18;;;;;;;2.17;1.10;;;;;;;7.36;100.00;94779.16;7401914;19;20394;-92
2023/10/31 13:14:45;;;;;;;2.23;1.37;;;;;;;7.36;100.00;94774.66;7401822;19;20392;-93
2023/10/31 13:17:57;;;;;;;1.83;1.30;;;;;;;6.51;100.00;94649.31;7398234;19;20500;-91
2023/10/31 13:20:58;;;;;;;2.20;1.17;;;;;;;7.82;100.00;94858.25;7401012;19;20402;-91
2023/10/31 13:24:17;;;;;;;4.30;1.40;;;;;;;7.81;100.00;94864.63;7396559;19;20417;-92
2023/10/31 13:27:16;;;;;;;;;;;;;;;;;;;;;
2023/10/31 13:30:11;;;;;;;3.13;1.40;;;;;;;7.93;100.00;94878.44;7399571;19;20407;-91
2023/10/31 13:32:53;;;;;;;2.07;1.73;;;;;;;7.93;100.00;94877.66;7399852;19;20392;-91
2023/10/31 13:35:36;;;;;;;1.40;1.30;;;;;;;6.85;100.00;94729.25;7398522;19;20440;-91
2023/10/31 13:38:07;;;;;;;1.93;1.80;;;;;;;6.46;100.00;94692.34;7395325;19;20391;-92
2023/10/31 13:40:42;;;;;;;1.30;1.20;;;;;;;6.82;100.00;94746.44;7398764;19;20485;-91
2023/10/31 13:43:24;;;;;;;1.30;1.20;;;;;;;7.02;100.00;94789.28;7397934;19;20414;-91
2023/10/31 13:45:57;;;;;;;2.07;1.57;;;;;;;6.63;100.00;94735.84;7357946;19;20447;-92
2023/10/31 13:48:33;;;;;;;2.40;1.63;;;;;;;6.41;100.00;94687.34;7395931;19;20417;-91
2023/10/31 13:51:11;;;;;;;6.50;1.97;;;;;;;6.01;100.00;94636.88;7397354;19;20389;-90
2023/10/31 13:53:57;;;;;;;2.27;2.13;;;;;;;7.25;100.00;94826.22;7391584;19;20414;-92
2023/10/31 13:56:27;;;;;;;2.93;1.93;;;;;;;7.81;100.00;94920.63;7392340;19;20446;-90
2023/10/31 13:59:02;;;;;;;2.23;2.00;;;;;;;6.23;100.00;94680.91;7397512;19;20391;-91
2023/10/31 14:01:29;;;;;;;4.23;2.43;;;;;;;7.32;100.00;94844.03;7397783;19;20393;-91
2023/10/31 14:03:56;;;;;;;2.63;2.13;;;;;;;6.52;100.00;94734.84;7397169;19;20394;-91
2023/10/31 14:06:29;;;;;;;2.63;1.70;;;;;;;6.94;100.00;94797.34;7400568;19;20433;-92
2023/10/31 14:09:04;;;;;;;2.13;1.67;;;;;;;6.95;100.00;94793.63;7397845;19;20398;-92
2023/10/31 14:11:36;;;;;;;2.23;1.83;;;;;;;7.86;100.00;94949.31;7401636;19;20387;-92
2023/10/31 14:14:10;;;;;;;6.60;2.80;;;;;;;7.85;100.00;94950.41;7399741;19;20378;-91
2023/10/31 14:16:44;;;;;;;2.20;1.67;;;;;;;7.82;100.00;94952.97;7398505;19;20498;-92
2023/10/31 14:19:26;;;;;;;1.73;1.57;;;;;;;7.78;100.00;94947.63;7402288;19;20387;-92
2023/10/31 14:21:55;;;;;;;2.80;2.40;;;;;;;7.80;100.00;94960.44;7396318;19;21022;-91
2023/10/31 14:24:36;;;;;;;1.70;1.50;;;;;;;6.88;100.00;94825.75;7398189;19;20421;-94
2023/10/31 14:27:04;;;;;;;1.90;1.23;;;;;;;6.34;100.00;94760.66;7427371;19;20442;-92
2023/10/31 14:29:37;;;;;;;1.77;1.60;;;;;;;6.28;100.00;94746.28;7420026;19;20737;-93
2023/10/31 14:32:18;;;;;;;2.23;1.60;;;;;;;7.76;100.00;94959.59;7407925;19;20414;-93
2023/10/31 14:34:50;;;;;;;1.97;1.77;;;;;;;7.78;100.00;94965.28;7403909;19;20390;-92
2023/10/31 14:37:47;;;;;;;2.37;1.17;;;;;;;7.79;100.00;94977.34;7425361;19;20469;-94
2023/10/31 14:40:40;;;;;;;4.40;1.57;;;;;;;7.78;100.00;94958.16;7406558;19;20424;-93
2023/10/31 14:43:17;;;;;;;2.00;1.40;;;;;;;5.81;100.00;94683.97;7411821;19;20438;-96
2023/10/31 14:45:48;;;;;;;2.87;1.83;;;;;;;7.73;100.00;94971.56;7418329;19;20417;-94
2023/10/31 14:48:18;;;;;;;1.50;1.40;;;;;;;6.85;100.00;94826.44;7419725;19;20407;-94
2023/10/31 14:51:02;;;;;;;1.43;1.33;;;;;;;7.75;100.00;94960.72;7416592;19;20395;-93
2023/10/31 14:53:55;;;;;;;1.93;1.53;;;;;;;7.81;100.00;94972.50;7413738;19;20398;-93
2023/10/31 14:56:31;;;;;;;4.47;1.70;;;;;;;7.81;100.00;94970.63;7402113;19;20440;-92
2023/10/31 14:59:13;;;;;;;1.93;1.80;;;;;;;5.96;100.00;94700.09;7409497;19;20403;-93
2023/10/31 15:01:50;;;;;;;;;;;;;;;;;;;;;
2023/10/31 15:04:25;;;;;;;2.13;1.83;;;;;;;7.84;100.00;94969.94;7404399;19;20983;-92
2023/10/31 15:10:04;;;;;;;2.23;1.40;;;;;;;7.88;100.00;94985.78;7393795;19;20460;-93
2023/10/31 15:12:46;;;;;;;1.70;1.60;;;;;;;7.86;100.00;94970.34;7401085;19;20399;-92
2023/10/31 15:15:23;;;;;;;2.33;1.63;;;;;;;6.15;100.00;94723.84;7400763;19;20404;-91
2023/10/31 15:18:07;;;;;;;4.63;2.00;;;;;;;5.57;100.00;94636.91;7399983;19;20394;-91
2023/10/31 15:21:00;;;;;;;3.13;1.53;;;;;;;6.96;100.00;94845.84;7398166;19;20386;-92
2023/10/31 15:28:27;;;;;;;2.07;1.47;;;;;;;7.90;100.00;95010.69;7403045;19;20402;-93
2023/10/31 15:31:54;;;;;;;2.70;1.90;;;;;;;7.88;100.00;95006.84;7408355;19;20419;-93
2023/10/31 15:35:25;;;;;;;2.43;2.20;;;;;;;7.91;100.00;95000.91;7401998;19;20387;-91
2023/10/31 15:38:42;;;;;;;3.57;1.80;;;;;;;7.87;100.00;95000.06;7395953;19;20944;-91
2023/10/31 15:42:01;;;;;;;;;;;;;;;;;;;;;
2023/10/31 15:45:12;;;;;;;1.57;1.20;;;;;;;5.63;100.00;94683.50;7393308;19;20900;-91
2023/10/31 15:48:16;;;;;;;2.23;2.03;;;;;;;7.72;100.00;95015.50;7395738;19;20396;-91
2023/10/31 15:51:29;;;;;;;4.13;1.30;;;;;;;6.11;100.00;94809.53;7401957;19;20450;-91
2023/10/31 15:54:20;;;;;;;3.00;1.60;;;;;;;7.46;100.00;95015.25;7402629;19;20389;-91
2023/10/31 15:57:01;;;;;;;4.00;1.40;;;;;;;7.13;100.00;94944.59;7401244;19;20429;-91
2023/10/31 15:59:34;;;;;;;2.10;1.67;;;;;;;5.93;100.00;94760.00;7404208;19;20901;-92
2023/10/31 16:02:16;;;;;;;3.17;2.97;;;;;;;6.79;100.00;94872.41;7400966;19;20378;-92
2023/10/31 16:04:52;;;;;;;3.13;2.83;;;;;;;7.83;100.00;95036.81;7404909;19;20377;-92
2023/10/31 16:07:23;;;;;;;5.07;2.90;;;;;;;7.74;100.00;95028.31;7402337;19;20433;-90
2023/10/31 16:10:05;;;;;;;3.63;2.27;;;;;;;6.31;100.00;94818.31;7404480;19;20387;-92
2023/10/31 16:12:46;;;;;;;8.90;8.00;;;;;;;7.44;100.00;94993.78;7404977;19;20906;-92
2023/10/31 16:15:27;;;;;;;17.13;11.03;;;;;;;7.26;100.00;94984.69;7403946;19;20379;-91
2023/10/31 16:18:00;;;;;;;66.27;38.27;;;;;;;6.32;100.00;94836.34;7409205;19;20935;-92
2023/10/31 16:20:34;;;;;;;9.23;8.10;;;;;;;6.42;100.00;94869.22;7422321;19;20383;-92
2023/10/31 16:23:17;;;;;;;10.80;9.80;;;;;;;6.17;100.00;94842.31;7421631;19;20785;-92
2023/10/31 16:25:58;;;;;;;7.67;6.90;;;;;;;7.48;100.00;95043.81;7429615;19;20425;-93
2023/10/31 16:28:38;;;;;;;2.80;2.10;;;;;;;7.06;100.00;94979.31;7422928;19;20382;-92
2023/10/31 16:31:09;;;;;;;5.73;3.30;;;;;;;6.99;100.00;94976.53;7420020;19;20379;-93
2023/10/31 16:33:49;;;;;;;4.73;1.73;;;;;;;7.47;100.00;95056.22;7417150;19;20394;-93
2023/10/31 16:36:24;;;;;;;2.30;1.70;;;;;;;7.35;100.00;95057.06;7405736;19;20425;-92
2023/10/31 16:39:11;;;;;;;6.00;1.47;;;;;;;6.07;100.00;94866.41;7416043;19;20391;-92
2023/10/31 16:41:46;;;;;;;2.83;2.00;;;;;;;7.34;100.00;95073.91;7406933;19;20390;-93
2023/10/31 16:44:33;;;;;;;5.40;2.60;;;;;;;6.10;100.00;94882.22;7405788;19;20428;-92
2023/10/31 16:50:31;;;;;;;3.60;1.73;;;;;;;6.46;100.00;94949.59;7407789;19;20411;-92
2023/10/31 16:53:25;;;;;;;2.27;1.90;;;;;;;7.33;100.00;95093.41;7409308;19;20384;-93
2023/10/31 16:56:21;;;;;;;2.07;1.50;;;;;;;7.27;100.00;95107.91;7405452;19;20433;-92
2023/10/31 16:59:12;;;;;;;1.97;1.73;;;;;;;7.07;100.00;95085.19;7403484;19;20392;-92
2023/10/31 17:02:09;;;;;;;3.77;2.93;;;;;;;7.20;100.00;95106.94;7401334;19;20389;-93
2023/10/31 17:05:14;;;;;;;4.03;1.90;;;;;;;7.17;100.00;95124.16;7426476;19;20387;-93
2023/10/31 17:08:00;;;;;;;2.90;2.07;;;;;;;7.17;100.00;95108.38;7432184;19;20398;-93
2023/10/31 17:11:01;;;;;;;3.70;2.17;;;;;;;7.19;100.00;95108.03;7431400;19;20397;-94
2023/10/31 17:14:05;;;;;;;2.63;2.47;;;;;;;7.20;100.00;95109.56;7427520;19;20395;-93
2023/10/31 17:17:04;;;;;;;4.33;3.00;;;;;;;7.00;100.00;95119.94;7403237;19;20444;-92
2023/10/31 17:19:35;;;;;;;10.53;5.97;;;;;;;7.00;100.00;95130.44;7405148;19;20472;-92
2023/10/31 17:22:09;;;;;;;7.60;5.20;;;;;;;6.05;100.00;94987.41;7404911;19;20402;-93
2023/10/31 17:24:43;;;;;;;7.60;6.80;;;;;;;6.92;100.00;95126.06;7401276;19;20397;-93
2023/10/31 17:27:22;;;;;;;10.53;6.17;;;;;;;7.00;100.00;95132.31;7397628;19;20420;-92